PADK/ADK METAR and TAF weather

Enter ICAO airport designator
Station Type Date Time Source
PADK METAR 2019/08/18 09:56 UTC NOAA

PADK 180956Z AUTO 11011G15KT 10SM OVC017 12/09 A3013 RMK AO2 SLP203 T01220094 401560117


Station Type Date Time Source
PADK Decoded METAR 2019/08/18 09:56 UTC NOAA

Station name not available
Aug 18, 2019 - 05:56 AM EDT / 2019.08.18 0956 UTC
Wind: from the ESE (110 degrees) at 13 MPH (11 KT) gusting to 17 MPH (15 KT):0
Visibility: 10 mile(s):0
Sky conditions: overcast
Temperature: 54.0 F (12.2 C)
Dew Point: 48.9 F (9.4 C)
Relative Humidity: 82%
Pressure (altimeter): 30.13 in. Hg (1020 hPa)
ob: PADK 180956Z AUTO 11011G15KT 10SM OVC017 12/09 A3013 RMK AO2 SLP203 T01220094 401560117
cycle: 10

Station Type Date Time Source
PADK TAF 2007/04/07 12:54 UTC NOAA

TAF PADK 070404 33010G15KT 9999 FEW025 BKN030 OVC050 QNH2900INS T03/00Z TM01/18Z COR 1205 LAST NO
AMDS AFT 0712;

Example: see airport list